Portada
METAR-TAF:

METAR-TAF

Aeroports :

Graz, Àustria

latitud: 47-00N, longitud: 015-26E, altitud: 340 m

Observació

L'informe es va fer fa 28 minuts, a les 22:20 UTC
Vent 1 kt amb direcció variable
Temperatura 22°C
Humitat 78%
Pressió 1020 hPa
Visibilitat 10 km o més

METAR: LOWG 182220Z AUTO VRB01KT 9999 NCD 22/18 Q1020

Hora: 00:48 (22:48 UTC)

Pronòstic

L'informe es va fer fa 5 hores i 33 minuts, a les 17:15 UTC
Pronòstic vàlid del 18 a les 18 UTC al 19 a les 18 UTC
Vent 3 kt amb direcció variable
Visibilitat 10 km o més
sense núvols per sota de 1500 mi sense presència de cumulonimbus.
Probabilitat 30% :
Temporalment
l' 19 a les 16 UTC al 19 a les 18 UTC
Visibilitat: 4000 m
Cel ennuvolat a una alçada de 4000 ft
Escasses núvols a una alçada de 5000 ft, Cumulonimbus.
tempesta, pluja,

TAF: LOWG 181715Z 1818/1918 VRB03KT CAVOK TX29/1913Z TN19/1904Z PROB30 TEMPO 1916/1918 4000 TSRA BKN040 FEW050CB

Observacions i pronòstics meteorològics de més de 4000 aeroports (METAR i TAF).

Les estacions disponibles són els punts grocs i vermells al mapa.

Posi el ratolí al punt desitjat per veure el nom de l'estació.

Feu clic per veure les observacions i els pronòstics meteorològics.

Per canviar el mapa: feu clic els botons verds amb una creu de color negre per apropar; al botó verd amb un guió per allunyar la imatge; o en les fletxes verdes per a mapes adjacents.


METAR-TAF: